sensor_id;sensor_type;location;lat;lon;timestamp;temperature;humidity
52103;DHT22;38101;53.126;6.878;2022-09-09T00:04:37;16.40;99.90
52103;DHT22;38101;53.126;6.878;2022-09-09T00:15:14;16.30;99.90
52103;DHT22;38101;53.126;6.878;2022-09-09T00:17:56;16.30;99.90
52103;DHT22;38101;53.126;6.878;2022-09-09T00:20:36;16.20;99.90
52103;DHT22;38101;53.126;6.878;2022-09-09T00:26:10;16.20;99.90
52103;DHT22;38101;53.126;6.878;2022-09-09T00:28:49;16.20;99.90
52103;DHT22;38101;53.126;6.878;2022-09-09T00:31:20;16.20;99.90
52103;DHT22;38101;53.126;6.878;2022-09-09T00:33:49;16.10;99.90
52103;DHT22;38101;53.126;6.878;2022-09-09T00:36:21;16.10;99.90
52103;DHT22;38101;53.126;6.878;2022-09-09T00:38:52;16.10;99.90
52103;DHT22;38101;53.126;6.878;2022-09-09T00:44:30;16.10;99.90
52103;DHT22;38101;53.126;6.878;2022-09-09T00:49:59;16.00;99.90
52103;DHT22;38101;53.126;6.878;2022-09-09T00:58:16;16.00;99.90
52103;DHT22;38101;53.126;6.878;2022-09-09T01:00:43;15.90;99.90
52103;DHT22;38101;53.126;6.878;2022-09-09T01:06:15;15.90;99.90
52103;DHT22;38101;53.126;6.878;2022-09-09T06:35:55;15.70;99.90
52103;DHT22;38101;53.126;6.878;2022-09-09T06:38:22;15.70;99.90
52103;DHT22;38101;53.126;6.878;2022-09-09T06:40:53;15.70;99.90
52103;DHT22;38101;53.126;6.878;2022-09-09T06:43:20;15.70;99.90
52103;DHT22;38101;53.126;6.878;2022-09-09T06:45:53;15.70;99.90
52103;DHT22;38101;53.126;6.878;2022-09-09T06:48:19;15.80;99.90
52103;DHT22;38101;53.126;6.878;2022-09-09T06:50:45;15.80;99.90
52103;DHT22;38101;53.126;6.878;2022-09-09T06:53:11;15.80;99.90
52103;DHT22;38101;53.126;6.878;2022-09-09T06:55:37;15.80;99.90
52103;DHT22;38101;53.126;6.878;2022-09-09T06:58:08;15.90;99.90
52103;DHT22;38101;53.126;6.878;2022-09-09T07:00:34;15.90;99.90
52103;DHT22;38101;53.126;6.878;2022-09-09T07:02:59;15.90;99.90
52103;DHT22;38101;53.126;6.878;2022-09-09T07:05:25;15.90;99.90
52103;DHT22;38101;53.126;6.878;2022-09-09T07:07:51;16.00;99.90
52103;DHT22;38101;53.126;6.878;2022-09-09T07:10:17;16.00;99.90
52103;DHT22;38101;53.126;6.878;2022-09-09T07:12:43;16.00;99.90
52103;DHT22;38101;53.126;6.878;2022-09-09T07:15:09;16.10;99.90
52103;DHT22;38101;53.126;6.878;2022-09-09T07:17:36;16.10;99.90
52103;DHT22;38101;53.126;6.878;2022-09-09T07:20:02;16.10;99.90
52103;DHT22;38101;53.126;6.878;2022-09-09T07:22:29;16.20;99.90
52103;DHT22;38101;53.126;6.878;2022-09-09T07:24:55;16.20;99.90
52103;DHT22;38101;53.126;6.878;2022-09-09T07:27:20;16.30;99.90
52103;DHT22;38101;53.126;6.878;2022-09-09T07:29:46;16.30;99.90
52103;DHT22;38101;53.126;6.878;2022-09-09T07:32:12;16.30;99.90
52103;DHT22;38101;53.126;6.878;2022-09-09T07:34:37;16.30;99.90
52103;DHT22;38101;53.126;6.878;2022-09-09T07:37:03;16.30;99.90
52103;DHT22;38101;53.126;6.878;2022-09-09T07:39:29;16.40;99.90
52103;DHT22;38101;53.126;6.878;2022-09-09T07:41:54;16.40;99.90
52103;DHT22;38101;53.126;6.878;2022-09-09T07:44:22;16.40;99.90
52103;DHT22;38101;53.126;6.878;2022-09-09T07:46:49;16.50;99.90
52103;DHT22;38101;53.126;6.878;2022-09-09T07:49:15;16.50;99.90
52103;DHT22;38101;53.126;6.878;2022-09-09T07:51:43;16.50;99.90
52103;DHT22;38101;53.126;6.878;2022-09-09T07:54:13;16.60;99.90
52103;DHT22;38101;53.126;6.878;2022-09-09T07:56:41;16.60;99.90
52103;DHT22;38101;53.126;6.878;2022-09-09T07:59:07;16.60;99.90
52103;DHT22;38101;53.126;6.878;2022-09-09T08:01:48;16.60;99.90
52103;DHT22;38101;53.126;6.878;2022-09-09T08:04:17;16.70;99.90
52103;DHT22;38101;53.126;6.878;2022-09-09T08:06:48;16.70;99.90
52103;DHT22;38101;53.126;6.878;2022-09-09T08:09:14;16.70;99.90
52103;DHT22;38101;53.126;6.878;2022-09-09T08:11:41;16.80;99.90
52103;DHT22;38101;53.126;6.878;2022-09-09T08:14:08;16.90;99.90
52103;DHT22;38101;53.126;6.878;2022-09-09T08:16:43;16.90;99.90
52103;DHT22;38101;53.126;6.878;2022-09-09T08:19:09;16.90;99.90
52103;DHT22;38101;53.126;6.878;2022-09-09T08:21:37;16.90;99.90
52103;DHT22;38101;53.126;6.878;2022-09-09T08:24:04;16.90;99.90
52103;DHT22;38101;53.126;6.878;2022-09-09T08:26:41;17.00;99.90
52103;DHT22;38101;53.126;6.878;2022-09-09T08:29:08;17.00;99.90
52103;DHT22;38101;53.126;6.878;2022-09-09T08:31:37;17.10;99.90
52103;DHT22;38101;53.126;6.878;2022-09-09T08:34:04;17.10;99.90
52103;DHT22;38101;53.126;6.878;2022-09-09T08:36:34;17.10;99.90
52103;DHT22;38101;53.126;6.878;2022-09-09T08:39:00;17.10;99.90
52103;DHT22;38101;53.126;6.878;2022-09-09T08:45:34;17.20;99.90
52103;DHT22;38101;53.126;6.878;2022-09-09T08:57:52;17.50;99.90
52103;DHT22;38101;53.126;6.878;2022-09-09T09:00:19;17.60;99.90
52103;DHT22;38101;53.126;6.878;2022-09-09T09:11:04;17.90;99.90
52103;DHT22;38101;53.126;6.878;2022-09-09T09:13:37;17.90;99.90
52103;DHT22;38101;53.126;6.878;2022-09-09T09:16:33;17.90;99.90
52103;DHT22;38101;53.126;6.878;2022-09-09T09:19:00;18.00;99.90
52103;DHT22;38101;53.126;6.878;2022-09-09T09:21:43;18.00;99.90
52103;DHT22;38101;53.126;6.878;2022-09-09T09:24:19;18.10;99.90
52103;DHT22;38101;53.126;6.878;2022-09-09T09:26:45;18.20;99.90
52103;DHT22;38101;53.126;6.878;2022-09-09T09:29:16;18.20;99.90
52103;DHT22;38101;53.126;6.878;2022-09-09T09:31:47;18.30;99.90
52103;DHT22;38101;53.126;6.878;2022-09-09T09:34:14;18.30;99.90
52103;DHT22;38101;53.126;6.878;2022-09-09T09:36:43;18.40;99.90
52103;DHT22;38101;53.126;6.878;2022-09-09T09:39:23;18.50;99.90
52103;DHT22;38101;53.126;6.878;2022-09-09T09:41:49;18.60;99.90
52103;DHT22;38101;53.126;6.878;2022-09-09T09:46:51;18.70;99.90
52103;DHT22;38101;53.126;6.878;2022-09-09T09:49:18;18.80;99.90
52103;DHT22;38101;53.126;6.878;2022-09-09T09:51:44;18.80;99.90
52103;DHT22;38101;53.126;6.878;2022-09-09T09:56:39;18.90;99.90
52103;DHT22;38101;53.126;6.878;2022-09-09T09:59:05;18.90;99.90
52103;DHT22;38101;53.126;6.878;2022-09-09T10:01:32;19.00;99.90
52103;DHT22;38101;53.126;6.878;2022-09-09T10:04:01;19.00;99.90
52103;DHT22;38101;53.126;6.878;2022-09-09T10:06:32;19.10;99.90
52103;DHT22;38101;53.126;6.878;2022-09-09T10:08:59;19.20;99.90
52103;DHT22;38101;53.126;6.878;2022-09-09T10:11:47;19.20;99.90
52103;DHT22;38101;53.126;6.878;2022-09-09T10:14:43;19.20;99.90
52103;DHT22;38101;53.126;6.878;2022-09-09T10:17:27;19.20;99.90
52103;DHT22;38101;53.126;6.878;2022-09-09T10:20:10;19.30;99.90
52103;DHT22;38101;53.126;6.878;2022-09-09T10:22:49;19.40;99.90
52103;DHT22;38101;53.126;6.878;2022-09-09T10:33:47;19.50;99.90
52103;DHT22;38101;53.126;6.878;2022-09-09T10:36:23;19.50;99.90
52103;DHT22;38101;53.126;6.878;2022-09-09T10:41:49;19.60;99.90
52103;DHT22;38101;53.126;6.878;2022-09-09T10:53:07;19.60;99.90
52103;DHT22;38101;53.126;6.878;2022-09-09T10:55:43;19.60;99.90
52103;DHT22;38101;53.126;6.878;2022-09-09T10:58:18;19.60;99.90
52103;DHT22;38101;53.126;6.878;2022-09-09T11:00:53;19.60;99.90
52103;DHT22;38101;53.126;6.878;2022-09-09T11:03:22;19.70;99.90
52103;DHT22;38101;53.126;6.878;2022-09-09T11:05:53;19.80;99.90
52103;DHT22;38101;53.126;6.878;2022-09-09T11:08:25;19.90;99.90
52103;DHT22;38101;53.126;6.878;2022-09-09T11:11:03;20.00;99.90
52103;DHT22;38101;53.126;6.878;2022-09-09T11:16:05;20.10;99.90
52103;DHT22;38101;53.126;6.878;2022-09-09T11:18:38;20.20;99.90
52103;DHT22;38101;53.126;6.878;2022-09-09T11:21:10;20.30;99.90
52103;DHT22;38101;53.126;6.878;2022-09-09T11:23:44;20.40;99.90
52103;DHT22;38101;53.126;6.878;2022-09-09T11:26:21;20.50;99.90
52103;DHT22;38101;53.126;6.878;2022-09-09T11:30:05;20.60;99.90
52103;DHT22;38101;53.126;6.878;2022-09-09T11:32:22;20.60;99.90
52103;DHT22;38101;53.126;6.878;2022-09-09T11:35:17;20.70;99.90
52103;DHT22;38101;53.126;6.878;2022-09-09T11:40:21;20.90;99.90
52103;DHT22;38101;53.126;6.878;2022-09-09T11:42:49;20.90;99.90
52103;DHT22;38101;53.126;6.878;2022-09-09T11:45:24;20.80;99.90
52103;DHT22;38101;53.126;6.878;2022-09-09T11:48:57;20.80;99.90
52103;DHT22;38101;53.126;6.878;2022-09-09T11:56:32;21.00;99.90
52103;DHT22;38101;53.126;6.878;2022-09-09T11:59:04;21.10;99.90
52103;DHT22;38101;53.126;6.878;2022-09-09T12:01:38;21.20;99.90
52103;DHT22;38101;53.126;6.878;2022-09-09T12:04:06;21.40;99.90
52103;DHT22;38101;53.126;6.878;2022-09-09T12:07:01;21.40;99.90
52103;DHT22;38101;53.126;6.878;2022-09-09T12:09:46;21.40;99.90
52103;DHT22;38101;53.126;6.878;2022-09-09T12:14:43;21.30;99.90
52103;DHT22;38101;53.126;6.878;2022-09-09T12:17:20;21.30;99.90
52103;DHT22;38101;53.126;6.878;2022-09-09T12:19:48;21.30;99.90
52103;DHT22;38101;53.126;6.878;2022-09-09T12:28:24;21.50;99.90
52103;DHT22;38101;53.126;6.878;2022-09-09T12:31:02;21.60;99.90
52103;DHT22;38101;53.126;6.878;2022-09-09T12:33:36;21.60;99.90
52103;DHT22;38101;53.126;6.878;2022-09-09T12:36:03;21.60;99.90
52103;DHT22;38101;53.126;6.878;2022-09-09T12:38:38;21.60;99.90
52103;DHT22;38101;53.126;6.878;2022-09-09T12:41:04;21.50;99.90
52103;DHT22;38101;53.126;6.878;2022-09-09T12:43:31;21.50;99.90
52103;DHT22;38101;53.126;6.878;2022-09-09T12:46:03;21.40;99.90
52103;DHT22;38101;53.126;6.878;2022-09-09T12:48:37;21.40;99.90
52103;DHT22;38101;53.126;6.878;2022-09-09T12:51:07;21.40;99.90
52103;DHT22;38101;53.126;6.878;2022-09-09T12:53:42;21.30;99.90
52103;DHT22;38101;53.126;6.878;2022-09-09T12:56:17;21.40;99.90
52103;DHT22;38101;53.126;6.878;2022-09-09T12:58:45;21.30;99.90
52103;DHT22;38101;53.126;6.878;2022-09-09T13:03:52;21.20;99.90
52103;DHT22;38101;53.126;6.878;2022-09-09T13:06:26;21.20;99.90
52103;DHT22;38101;53.126;6.878;2022-09-09T13:08:53;21.20;99.90
52103;DHT22;38101;53.126;6.878;2022-09-09T13:11:27;21.30;99.90
52103;DHT22;38101;53.126;6.878;2022-09-09T13:13:55;21.50;99.90
52103;DHT22;38101;53.126;6.878;2022-09-09T13:16:30;21.70;99.90
52103;DHT22;38101;53.126;6.878;2022-09-09T13:19:08;21.90;99.90
52103;DHT22;38101;53.126;6.878;2022-09-09T13:21:39;22.00;99.90
52103;DHT22;38101;53.126;6.878;2022-09-09T13:24:07;22.20;99.90
52103;DHT22;38101;53.126;6.878;2022-09-09T13:26:54;22.40;99.90
52103;DHT22;38101;53.126;6.878;2022-09-09T13:29:21;22.50;99.90
52103;DHT22;38101;53.126;6.878;2022-09-09T13:31:47;22.50;99.90
52103;DHT22;38101;53.126;6.878;2022-09-09T13:34:29;22.50;99.90
52103;DHT22;38101;53.126;6.878;2022-09-09T13:37:00;22.50;99.90
52103;DHT22;38101;53.126;6.878;2022-09-09T13:39:33;22.40;99.90
52103;DHT22;38101;53.126;6.878;2022-09-09T13:42:00;22.40;99.90
52103;DHT22;38101;53.126;6.878;2022-09-09T13:44:38;22.40;99.90
52103;DHT22;38101;53.126;6.878;2022-09-09T13:47:15;22.40;99.90
52103;DHT22;38101;53.126;6.878;2022-09-09T13:49:42;22.30;99.90
52103;DHT22;38101;53.126;6.878;2022-09-09T13:52:16;22.10;99.90
52103;DHT22;38101;53.126;6.878;2022-09-09T13:54:46;22.00;99.90
52103;DHT22;38101;53.126;6.878;2022-09-09T13:57:20;21.80;99.90
52103;DHT22;38101;53.126;6.878;2022-09-09T13:59:46;21.80;99.90
52103;DHT22;38101;53.126;6.878;2022-09-09T14:02:12;21.60;99.90
52103;DHT22;38101;53.126;6.878;2022-09-09T14:04:38;21.50;99.90
52103;DHT22;38101;53.126;6.878;2022-09-09T14:07:12;21.30;99.90
52103;DHT22;38101;53.126;6.878;2022-09-09T14:09:39;21.20;99.90
52103;DHT22;38101;53.126;6.878;2022-09-09T14:12:08;21.10;99.90
52103;DHT22;38101;53.126;6.878;2022-09-09T14:14:34;21.00;99.90
52103;DHT22;38101;53.126;6.878;2022-09-09T14:17:00;20.90;99.90
52103;DHT22;38101;53.126;6.878;2022-09-09T14:19:26;20.90;99.90
52103;DHT22;38101;53.126;6.878;2022-09-09T14:21:52;20.80;99.90
52103;DHT22;38101;53.126;6.878;2022-09-09T14:24:17;20.80;99.90
52103;DHT22;38101;53.126;6.878;2022-09-09T14:26:43;20.80;99.90
52103;DHT22;38101;53.126;6.878;2022-09-09T14:29:09;20.90;99.90
52103;DHT22;38101;53.126;6.878;2022-09-09T14:31:35;20.90;99.90
52103;DHT22;38101;53.126;6.878;2022-09-09T14:34:00;20.90;99.90
52103;DHT22;38101;53.126;6.878;2022-09-09T14:36:26;20.80;99.90
52103;DHT22;38101;53.126;6.878;2022-09-09T14:38:52;20.70;99.90
52103;DHT22;38101;53.126;6.878;2022-09-09T14:41:19;20.70;99.90
52103;DHT22;38101;53.126;6.878;2022-09-09T14:43:46;20.50;99.90
52103;DHT22;38101;53.126;6.878;2022-09-09T14:46:14;20.40;99.90
52103;DHT22;38101;53.126;6.878;2022-09-09T14:48:40;20.30;99.90
52103;DHT22;38101;53.126;6.878;2022-09-09T14:53:45;20.20;99.90
52103;DHT22;38101;53.126;6.878;2022-09-09T14:56:16;20.10;99.90
52103;DHT22;38101;53.126;6.878;2022-09-09T14:58:42;20.00;99.90
52103;DHT22;38101;53.126;6.878;2022-09-09T15:01:14;20.00;99.90
52103;DHT22;38101;53.126;6.878;2022-09-09T15:03:42;20.00;99.90
52103;DHT22;38101;53.126;6.878;2022-09-09T15:06:13;19.90;99.90
52103;DHT22;38101;53.126;6.878;2022-09-09T15:08:42;19.90;99.90
52103;DHT22;38101;53.126;6.878;2022-09-09T15:11:09;19.90;99.90
52103;DHT22;38101;53.126;6.878;2022-09-09T15:13:36;19.90;99.90
52103;DHT22;38101;53.126;6.878;2022-09-09T15:16:24;19.90;99.90
52103;DHT22;38101;53.126;6.878;2022-09-09T15:18:53;19.80;99.90
52103;DHT22;38101;53.126;6.878;2022-09-09T15:21:21;19.80;99.90
52103;DHT22;38101;53.126;6.878;2022-09-09T15:23:48;19.80;99.90
52103;DHT22;38101;53.126;6.878;2022-09-09T15:26:15;19.70;99.90
52103;DHT22;38101;53.126;6.878;2022-09-09T15:28:42;19.70;99.90
52103;DHT22;38101;53.126;6.878;2022-09-09T15:31:14;19.60;99.90
52103;DHT22;38101;53.126;6.878;2022-09-09T15:33:40;19.60;99.90
52103;DHT22;38101;53.126;6.878;2022-09-09T15:36:33;19.60;99.90
52103;DHT22;38101;53.126;6.878;2022-09-09T15:39:00;19.60;99.90
52103;DHT22;38101;53.126;6.878;2022-09-09T15:41:27;19.60;99.90
52103;DHT22;38101;53.126;6.878;2022-09-09T15:43:54;19.60;99.90
52103;DHT22;38101;53.126;6.878;2022-09-09T15:48:51;19.70;99.90
52103;DHT22;38101;53.126;6.878;2022-09-09T15:51:17;19.90;99.90
52103;DHT22;38101;53.126;6.878;2022-09-09T15:53:44;20.00;99.90
52103;DHT22;38101;53.126;6.878;2022-09-09T15:56:10;20.20;99.90
52103;DHT22;38101;53.126;6.878;2022-09-09T15:58:36;20.30;99.90
52103;DHT22;38101;53.126;6.878;2022-09-09T16:01:06;20.50;99.90
52103;DHT22;38101;53.126;6.878;2022-09-09T16:03:36;20.60;99.90
52103;DHT22;38101;53.126;6.878;2022-09-09T16:06:04;20.70;99.90
52103;DHT22;38101;53.126;6.878;2022-09-09T16:08:34;20.80;99.90
52103;DHT22;38101;53.126;6.878;2022-09-09T16:11:14;20.90;99.90
52103;DHT22;38101;53.126;6.878;2022-09-09T16:13:42;21.00;99.90
52103;DHT22;38101;53.126;6.878;2022-09-09T16:16:10;21.10;99.90
52103;DHT22;38101;53.126;6.878;2022-09-09T16:18:42;21.10;99.90
52103;DHT22;38101;53.126;6.878;2022-09-09T16:21:17;21.20;99.90
52103;DHT22;38101;53.126;6.878;2022-09-09T16:23:44;21.30;99.90
52103;DHT22;38101;53.126;6.878;2022-09-09T16:26:12;21.30;99.90
52103;DHT22;38101;53.126;6.878;2022-09-09T16:28:38;21.30;99.90
52103;DHT22;38101;53.126;6.878;2022-09-09T16:31:09;21.20;99.90
52103;DHT22;38101;53.126;6.878;2022-09-09T16:33:36;21.10;99.90
52103;DHT22;38101;53.126;6.878;2022-09-09T16:36:10;21.10;99.90
52103;DHT22;38101;53.126;6.878;2022-09-09T16:38:37;21.00;99.90
52103;DHT22;38101;53.126;6.878;2022-09-09T16:41:04;20.90;99.90
52103;DHT22;38101;53.126;6.878;2022-09-09T16:43:34;20.80;99.90
52103;DHT22;38101;53.126;6.878;2022-09-09T16:46:11;20.70;99.90
52103;DHT22;38101;53.126;6.878;2022-09-09T16:48:37;20.60;99.90
52103;DHT22;38101;53.126;6.878;2022-09-09T16:51:09;20.50;99.90
52103;DHT22;38101;53.126;6.878;2022-09-09T16:53:36;20.40;99.90
52103;DHT22;38101;53.126;6.878;2022-09-09T16:56:10;20.30;99.90
52103;DHT22;38101;53.126;6.878;2022-09-09T16:58:36;20.20;99.90
52103;DHT22;38101;53.126;6.878;2022-09-09T17:01:02;20.10;99.90
52103;DHT22;38101;53.126;6.878;2022-09-09T17:03:29;20.00;99.90
52103;DHT22;38101;53.126;6.878;2022-09-09T17:05:55;19.90;99.90
52103;DHT22;38101;53.126;6.878;2022-09-09T17:08:20;19.80;99.90
52103;DHT22;38101;53.126;6.878;2022-09-09T17:10:46;19.80;99.90
52103;DHT22;38101;53.126;6.878;2022-09-09T17:13:12;19.70;99.90
52103;DHT22;38101;53.126;6.878;2022-09-09T17:15:42;19.70;99.90
52103;DHT22;38101;53.126;6.878;2022-09-09T17:18:12;19.60;99.90
52103;DHT22;38101;53.126;6.878;2022-09-09T17:20:41;19.50;99.90
52103;DHT22;38101;53.126;6.878;2022-09-09T17:23:08;19.50;99.90
52103;DHT22;38101;53.126;6.878;2022-09-09T17:25:34;19.50;99.90
52103;DHT22;38101;53.126;6.878;2022-09-09T17:28:00;19.40;99.90
52103;DHT22;38101;53.126;6.878;2022-09-09T17:30:27;19.40;99.90
52103;DHT22;38101;53.126;6.878;2022-09-09T17:32:53;19.30;99.90
52103;DHT22;38101;53.126;6.878;2022-09-09T17:35:19;19.30;99.90
52103;DHT22;38101;53.126;6.878;2022-09-09T17:37:44;19.20;99.90
52103;DHT22;38101;53.126;6.878;2022-09-09T17:40:10;19.20;99.90
52103;DHT22;38101;53.126;6.878;2022-09-09T17:42:36;19.20;99.90
52103;DHT22;38101;53.126;6.878;2022-09-09T17:45:03;19.20;99.90
52103;DHT22;38101;53.126;6.878;2022-09-09T17:47:29;19.20;99.90
52103;DHT22;38101;53.126;6.878;2022-09-09T17:49:56;19.20;99.90
52103;DHT22;38101;53.126;6.878;2022-09-09T17:52:22;19.10;99.90
52103;DHT22;38101;53.126;6.878;2022-09-09T17:54:48;19.10;99.90
52103;DHT22;38101;53.126;6.878;2022-09-09T17:57:15;19.10;99.90
52103;DHT22;38101;53.126;6.878;2022-09-09T17:59:42;19.10;99.90
52103;DHT22;38101;53.126;6.878;2022-09-09T18:02:10;19.00;99.90
52103;DHT22;38101;53.126;6.878;2022-09-09T18:04:36;19.00;99.90
52103;DHT22;38101;53.126;6.878;2022-09-09T18:07:02;19.00;99.90
52103;DHT22;38101;53.126;6.878;2022-09-09T18:09:28;18.90;99.90
52103;DHT22;38101;53.126;6.878;2022-09-09T18:11:55;18.90;99.90
52103;DHT22;38101;53.126;6.878;2022-09-09T18:14:31;18.90;99.90
52103;DHT22;38101;53.126;6.878;2022-09-09T18:16:58;18.90;99.90
52103;DHT22;38101;53.126;6.878;2022-09-09T18:19:26;18.90;99.90
52103;DHT22;38101;53.126;6.878;2022-09-09T18:21:52;18.80;99.90
52103;DHT22;38101;53.126;6.878;2022-09-09T18:24:19;18.80;99.90
52103;DHT22;38101;53.126;6.878;2022-09-09T18:26:47;18.80;99.90
52103;DHT22;38101;53.126;6.878;2022-09-09T18:29:16;18.70;99.90
52103;DHT22;38101;53.126;6.878;2022-09-09T18:31:44;18.70;99.90
52103;DHT22;38101;53.126;6.878;2022-09-09T18:34:13;18.60;99.90
52103;DHT22;38101;53.126;6.878;2022-09-09T18:36:45;18.60;99.90
52103;DHT22;38101;53.126;6.878;2022-09-09T18:39:16;18.60;99.90
52103;DHT22;38101;53.126;6.878;2022-09-09T18:41:45;18.60;99.90
52103;DHT22;38101;53.126;6.878;2022-09-09T18:44:17;18.60;99.90
52103;DHT22;38101;53.126;6.878;2022-09-09T18:46:43;18.60;99.90
52103;DHT22;38101;53.126;6.878;2022-09-09T18:49:10;18.50;99.90
52103;DHT22;38101;53.126;6.878;2022-09-09T18:51:37;18.50;99.90
52103;DHT22;38101;53.126;6.878;2022-09-09T18:54:12;18.50;99.90
52103;DHT22;38101;53.126;6.878;2022-09-09T18:56:38;18.40;99.90
52103;DHT22;38101;53.126;6.878;2022-09-09T18:59:06;18.40;99.90
52103;DHT22;38101;53.126;6.878;2022-09-09T19:01:32;18.40;99.90
52103;DHT22;38101;53.126;6.878;2022-09-09T19:04:01;18.40;99.90
52103;DHT22;38101;53.126;6.878;2022-09-09T19:06:29;18.30;99.90
52103;DHT22;38101;53.126;6.878;2022-09-09T19:08:56;18.40;99.90
52103;DHT22;38101;53.126;6.878;2022-09-09T19:11:26;18.30;99.90
52103;DHT22;38101;53.126;6.878;2022-09-09T19:13:59;18.30;99.90
52103;DHT22;38101;53.126;6.878;2022-09-09T19:16:27;18.30;99.90
52103;DHT22;38101;53.126;6.878;2022-09-09T19:18:54;18.30;99.90
52103;DHT22;38101;53.126;6.878;2022-09-09T19:21:24;18.30;99.90
52103;DHT22;38101;53.126;6.878;2022-09-09T19:23:57;18.10;99.90
52103;DHT22;38101;53.126;6.878;2022-09-09T19:26:27;17.90;99.90
52103;DHT22;38101;53.126;6.878;2022-09-09T19:28:54;17.80;99.90
52103;DHT22;38101;53.126;6.878;2022-09-09T19:31:20;17.80;99.90
52103;DHT22;38101;53.126;6.878;2022-09-09T19:33:46;17.80;99.90
52103;DHT22;38101;53.126;6.878;2022-09-09T19:36:17;17.80;99.90
52103;DHT22;38101;53.126;6.878;2022-09-09T19:38:44;17.80;99.90
52103;DHT22;38101;53.126;6.878;2022-09-09T19:41:18;17.90;99.90
52103;DHT22;38101;53.126;6.878;2022-09-09T19:43:45;17.90;99.90
52103;DHT22;38101;53.126;6.878;2022-09-09T19:46:12;17.90;99.90
52103;DHT22;38101;53.126;6.878;2022-09-09T19:48:40;17.90;99.90
52103;DHT22;38101;53.126;6.878;2022-09-09T19:51:26;17.90;99.90
52103;DHT22;38101;53.126;6.878;2022-09-09T19:54:05;17.90;99.90
52103;DHT22;38101;53.126;6.878;2022-09-09T19:56:34;17.90;99.90
52103;DHT22;38101;53.126;6.878;2022-09-09T19:59:01;17.90;99.90
52103;DHT22;38101;53.126;6.878;2022-09-09T20:01:29;17.90;99.90
52103;DHT22;38101;53.126;6.878;2022-09-09T20:03:58;17.90;99.90
52103;DHT22;38101;53.126;6.878;2022-09-09T20:06:26;17.90;99.90
52103;DHT22;38101;53.126;6.878;2022-09-09T20:08:54;17.90;99.90
52103;DHT22;38101;53.126;6.878;2022-09-09T20:11:20;17.90;99.90
52103;DHT22;38101;53.126;6.878;2022-09-09T20:13:47;17.90;99.90
52103;DHT22;38101;53.126;6.878;2022-09-09T20:16:23;17.90;99.90
52103;DHT22;38101;53.126;6.878;2022-09-09T20:18:54;17.90;99.90
52103;DHT22;38101;53.126;6.878;2022-09-09T20:21:27;17.90;99.90
52103;DHT22;38101;53.126;6.878;2022-09-09T20:23:54;17.90;99.90
52103;DHT22;38101;53.126;6.878;2022-09-09T20:26:22;17.80;99.90
52103;DHT22;38101;53.126;6.878;2022-09-09T20:28:51;17.80;99.90
52103;DHT22;38101;53.126;6.878;2022-09-09T20:31:28;17.80;99.90
52103;DHT22;38101;53.126;6.878;2022-09-09T20:33:55;17.80;99.90
52103;DHT22;38101;53.126;6.878;2022-09-09T20:36:27;17.70;99.90
52103;DHT22;38101;53.126;6.878;2022-09-09T20:38:56;17.70;99.90
52103;DHT22;38101;53.126;6.878;2022-09-09T20:41:25;17.70;99.90
52103;DHT22;38101;53.126;6.878;2022-09-09T20:43:58;17.70;99.90
52103;DHT22;38101;53.126;6.878;2022-09-09T20:46:30;17.70;99.90
52103;DHT22;38101;53.126;6.878;2022-09-09T20:48:57;17.70;99.90
52103;DHT22;38101;53.126;6.878;2022-09-09T20:51:26;17.70;99.90
52103;DHT22;38101;53.126;6.878;2022-09-09T20:54:08;17.70;99.90
52103;DHT22;38101;53.126;6.878;2022-09-09T20:56:37;17.70;99.90
52103;DHT22;38101;53.126;6.878;2022-09-09T20:59:05;17.70;99.90
52103;DHT22;38101;53.126;6.878;2022-09-09T21:01:31;17.60;99.90
52103;DHT22;38101;53.126;6.878;2022-09-09T21:03:57;17.60;99.90
52103;DHT22;38101;53.126;6.878;2022-09-09T21:06:25;17.60;99.90
52103;DHT22;38101;53.126;6.878;2022-09-09T21:08:51;17.60;99.90
52103;DHT22;38101;53.126;6.878;2022-09-09T21:11:16;17.60;99.90
52103;DHT22;38101;53.126;6.878;2022-09-09T21:13:42;17.50;99.90
52103;DHT22;38101;53.126;6.878;2022-09-09T21:16:14;17.50;99.90
52103;DHT22;38101;53.126;6.878;2022-09-09T21:18:40;17.50;99.90
52103;DHT22;38101;53.126;6.878;2022-09-09T21:21:11;17.50;99.90
52103;DHT22;38101;53.126;6.878;2022-09-09T21:23:37;17.40;99.90
52103;DHT22;38101;53.126;6.878;2022-09-09T21:26:03;17.40;99.90
52103;DHT22;38101;53.126;6.878;2022-09-09T21:28:29;17.40;99.90
52103;DHT22;38101;53.126;6.878;2022-09-09T21:30:56;17.40;99.90
52103;DHT22;38101;53.126;6.878;2022-09-09T21:33:23;17.30;99.90
52103;DHT22;38101;53.126;6.878;2022-09-09T21:35:49;17.30;99.90
52103;DHT22;38101;53.126;6.878;2022-09-09T21:38:18;17.30;99.90
52103;DHT22;38101;53.126;6.878;2022-09-09T21:40:44;17.20;99.90
52103;DHT22;38101;53.126;6.878;2022-09-09T21:43:11;17.20;99.90
52103;DHT22;38101;53.126;6.878;2022-09-09T21:45:39;17.20;99.90
52103;DHT22;38101;53.126;6.878;2022-09-09T21:48:06;17.20;99.90
52103;DHT22;38101;53.126;6.878;2022-09-09T21:50:40;17.20;99.90
52103;DHT22;38101;53.126;6.878;2022-09-09T21:53:07;17.20;99.90
52103;DHT22;38101;53.126;6.878;2022-09-09T21:55:35;17.10;99.90
52103;DHT22;38101;53.126;6.878;2022-09-09T21:58:05;17.10;99.90
52103;DHT22;38101;53.126;6.878;2022-09-09T22:00:30;17.10;99.90
52103;DHT22;38101;53.126;6.878;2022-09-09T22:02:58;17.10;99.90
52103;DHT22;38101;53.126;6.878;2022-09-09T22:05:24;17.10;99.90
52103;DHT22;38101;53.126;6.878;2022-09-09T22:07:50;17.10;99.90
52103;DHT22;38101;53.126;6.878;2022-09-09T22:10:18;17.00;99.90
52103;DHT22;38101;53.126;6.878;2022-09-09T22:12:44;17.00;99.90
52103;DHT22;38101;53.126;6.878;2022-09-09T22:15:10;17.00;99.90
52103;DHT22;38101;53.126;6.878;2022-09-09T22:17:35;17.00;99.90
52103;DHT22;38101;53.126;6.878;2022-09-09T22:20:01;17.00;99.90
52103;DHT22;38101;53.126;6.878;2022-09-09T22:22:27;17.00;99.90
52103;DHT22;38101;53.126;6.878;2022-09-09T22:24:53;17.00;99.90
52103;DHT22;38101;53.126;6.878;2022-09-09T22:27:18;16.90;99.90
52103;DHT22;38101;53.126;6.878;2022-09-09T22:29:44;16.90;99.90
52103;DHT22;38101;53.126;6.878;2022-09-09T22:32:10;16.90;99.90
52103;DHT22;38101;53.126;6.878;2022-09-09T22:34:38;16.90;99.90
52103;DHT22;38101;53.126;6.878;2022-09-09T22:37:04;16.90;99.90
52103;DHT22;38101;53.126;6.878;2022-09-09T22:39:31;16.80;99.90
52103;DHT22;38101;53.126;6.878;2022-09-09T22:41:57;16.80;99.90
52103;DHT22;38101;53.126;6.878;2022-09-09T22:44:27;16.80;99.90
52103;DHT22;38101;53.126;6.878;2022-09-09T22:46:53;16.80;99.90
52103;DHT22;38101;53.126;6.878;2022-09-09T22:49:20;16.70;99.90
52103;DHT22;38101;53.126;6.878;2022-09-09T22:51:46;16.70;99.90
52103;DHT22;38101;53.126;6.878;2022-09-09T22:54:12;16.70;99.90
52103;DHT22;38101;53.126;6.878;2022-09-09T22:56:37;16.70;99.90